Time;durP1;ratioP1;P1;durP2;ratioP2;P2;SDS_P1;SDS_P2;PMS_P1;PMS_P2;Temp;Humidity;BMP_temperature;BMP_pressure;BME280_temperature;BME280_humidity;BME280_pressure;Samples;Min_cycle;Max_cycle;Signal;HPM_P1;HPM_P2
2023/03/28 00:01:11;;;;;;;13.40;2.10;;;2.60;99.90;;;;;;4945736;28;38964;-79
2023/03/28 00:03:41;;;;;;;12.97;1.80;;;2.60;99.90;;;;;;4946652;28;35674;-80
2023/03/28 00:06:17;;;;;;;8.03;1.80;;;2.40;99.90;;;;;;4945060;28;37900;-79
2023/03/28 00:08:46;;;;;;;8.63;1.70;;;2.20;99.90;;;;;;4964663;28;37476;-80
2023/03/28 00:11:18;;;;;;;14.97;1.70;;;2.10;99.90;;;;;;4963467;28;39832;-79
2023/03/28 00:13:59;;;;;;;9.82;1.90;;;2.10;99.90;;;;;;4953487;28;36359;-80
2023/03/28 00:16:32;;;;;;;9.83;2.10;;;2.00;99.90;;;;;;4951445;28;38682;-80
2023/03/28 00:19:04;;;;;;;8.93;2.00;;;2.00;99.90;;;;;;4958453;28;35841;-80
2023/03/28 00:21:35;;;;;;;9.30;1.83;;;1.90;99.90;;;;;;4964290;28;48652;-80
2023/03/28 00:24:04;;;;;;;10.43;1.90;;;1.80;99.90;;;;;;4961793;28;37534;-78
2023/03/28 00:26:33;;;;;;;10.20;2.10;;;1.70;99.90;;;;;;4964950;28;39791;-80
2023/03/28 00:29:00;;;;;;;11.27;2.10;;;1.70;99.90;;;;;;4965834;28;39731;-80
2023/03/28 00:31:27;;;;;;;9.77;1.60;;;1.60;99.90;;;;;;4949556;28;37931;-80
2023/03/28 00:33:55;;;;;;;10.73;2.23;;;1.60;99.90;;;;;;4954448;28;35873;-80
2023/03/28 00:36:22;;;;;;;8.60;1.63;;;1.60;99.90;;;;;;4942148;28;39448;-80
2023/03/28 00:38:49;;;;;;;6.30;1.90;;;1.50;99.90;;;;;;4943939;28;37192;-80
2023/03/28 00:41:17;;;;;;;5.57;1.67;;;1.40;99.90;;;;;;4951560;28;38058;-80
2023/03/28 00:43:49;;;;;;;9.13;1.60;;;1.40;99.90;;;;;;4961600;28;38164;-80
2023/03/28 00:46:22;;;;;;;7.78;1.55;;;1.40;99.90;;;;;;4959899;28;38512;-81
2023/03/28 00:48:57;;;;;;;;;;;1.30;99.90;;;;;;4967119;28;38035;-79
2023/03/28 00:51:28;;;;;;;13.17;2.10;;;1.30;99.90;;;;;;4960773;28;36810;-80
2023/03/28 00:53:59;;;;;;;7.77;1.90;;;1.30;99.90;;;;;;4959818;28;37100;-80
2023/03/28 00:56:31;;;;;;;6.87;1.90;;;1.20;99.90;;;;;;4966744;28;40009;-80
2023/03/28 00:59:00;;;;;;;11.17;2.53;;;1.20;99.90;;;;;;4964106;28;38855;-80
2023/03/28 01:01:38;;;;;;;4.63;1.70;;;1.20;99.90;;;;;;5352551;23;47615;-75
2023/03/28 01:04:05;;;;;;;4.80;1.60;;;1.10;99.90;;;;;;4912352;28;34617;-74
2023/03/28 01:06:39;;;;;;;3.73;1.30;;;1.20;99.90;;;;;;4931116;28;38918;-73
2023/03/28 01:09:08;;;;;;;5.97;2.03;;;1.20;99.90;;;;;;4946492;28;38273;-73
2023/03/28 01:11:37;;;;;;;7.07;1.80;;;1.20;99.90;;;;;;4925984;28;36664;-74
2023/03/28 01:14:03;;;;;;;7.07;1.50;;;1.20;99.90;;;;;;4940633;28;35893;-74
2023/03/28 01:16:30;;;;;;;8.20;1.47;;;1.20;99.90;;;;;;4945022;28;39016;-73
2023/03/28 01:19:00;;;;;;;5.60;2.10;;;1.10;99.90;;;;;;4944097;28;38058;-74
2023/03/28 01:22:05;;;;;;;8.40;1.70;;;1.00;99.90;;;;;;4939054;28;47744;-75
2023/03/28 01:25:09;;;;;;;6.17;2.27;;;0.90;99.90;;;;;;4968435;28;47064;-74
2023/03/28 01:28:00;;;;;;;3.33;1.73;;;0.90;99.90;;;;;;4953391;28;47849;-74
2023/03/28 01:30:46;;;;;;;5.73;1.63;;;0.80;99.90;;;;;;4931796;28;47366;-74
2023/03/28 01:34:03;;;;;;;17.97;4.33;;;0.80;99.90;;;;;;4949579;28;38797;-75
2023/03/28 01:36:53;;;;;;;5.93;1.60;;;0.80;99.90;;;;;;4903756;28;47156;-74
2023/03/28 01:39:36;;;;;;;4.20;1.30;;;0.70;99.90;;;;;;4942443;28;37646;-74
2023/03/28 01:42:10;;;;;;;;;;;0.70;99.90;;;;;;4933448;28;37059;-74
2023/03/28 01:44:45;;;;;;;8.87;1.60;;;0.70;99.90;;;;;;4935153;28;39165;-74
2023/03/28 01:47:33;;;;;;;9.47;1.37;;;0.70;99.90;;;;;;4965994;28;35591;-75
2023/03/28 01:50:17;;;;;;;6.77;1.70;;;0.70;99.90;;;;;;4946363;28;37392;-74
2023/03/28 01:52:53;;;;;;;5.13;1.63;;;0.70;99.90;;;;;;4945903;28;47277;-74
2023/03/28 01:55:30;;;;;;;8.73;1.63;;;0.60;99.90;;;;;;4948117;28;36962;-74
2023/03/28 01:58:06;;;;;;;9.10;2.27;;;0.70;99.90;;;;;;4947354;28;36036;-75
2023/03/28 02:00:46;;;;;;;3.10;1.23;;;0.70;99.90;;;;;;4928661;28;46847;-74
2023/03/28 02:03:23;;;;;;;19.03;2.03;;;0.60;99.90;;;;;;4942858;28;38231;-74
2023/03/28 02:05:53;;;;;;;11.97;1.80;;;0.60;99.90;;;;;;4926073;28;37416;-74
2023/03/28 02:08:20;;;;;;;6.53;1.37;;;0.70;99.90;;;;;;4932916;28;36888;-74
2023/03/28 02:10:49;;;;;;;12.47;2.70;;;0.70;99.90;;;;;;4944185;28;37395;-75
2023/03/28 02:13:21;;;;;;;4.77;1.17;;;0.70;99.90;;;;;;4933726;28;38084;-74
2023/03/28 02:15:49;;;;;;;;;;;0.60;99.90;;;;;;4930430;28;38621;-74
2023/03/28 02:18:20;;;;;;;6.67;1.23;;;0.60;99.90;;;;;;4936979;28;37974;-74
2023/03/28 02:21:11;;;;;;;8.07;2.20;;;0.50;99.90;;;;;;4925201;28;38031;-74
2023/03/28 02:23:41;;;;;;;4.67;1.50;;;0.50;99.90;;;;;;4959249;28;47024;-77
2023/03/28 02:26:08;;;;;;;3.30;1.10;;;0.60;99.90;;;;;;4945337;28;37205;-76
2023/03/28 02:28:36;;;;;;;5.47;2.00;;;0.50;99.90;;;;;;4938174;28;37311;-74
2023/03/28 02:31:03;;;;;;;5.90;1.80;;;0.50;99.90;;;;;;4932911;28;39915;-75
2023/03/28 02:33:39;;;;;;;5.07;1.37;;;0.50;99.90;;;;;;4945828;28;37035;-74
2023/03/28 02:36:30;;;;;;;4.53;1.20;;;0.50;99.90;;;;;;4945710;28;37005;-75
2023/03/28 02:38:59;;;;;;;7.23;1.93;;;0.40;99.90;;;;;;4936586;28;37459;-75
2023/03/28 02:41:45;;;;;;;8.37;1.60;;;0.40;99.90;;;;;;4935415;28;40092;-75
2023/03/28 02:44:16;;;;;;;1.80;1.43;;;0.30;99.90;;;;;;4940393;28;38673;-74
2023/03/28 02:47:03;;;;;;;5.15;1.88;;;0.30;99.90;;;;;;4944976;28;38735;-74
2023/03/28 02:49:44;;;;;;;8.13;1.50;;;0.30;99.90;;;;;;4937665;28;47252;-74
2023/03/28 02:52:22;;;;;;;5.03;1.30;;;0.30;99.90;;;;;;4934660;28;38473;-74
2023/03/28 02:55:12;;;;;;;6.13;1.63;;;0.30;99.90;;;;;;4935496;28;37946;-74
2023/03/28 02:57:49;;;;;;;3.73;1.40;;;0.20;99.90;;;;;;4943109;28;46910;-75
2023/03/28 03:00:18;;;;;;;5.37;1.57;;;0.20;99.90;;;;;;4940444;28;36220;-75
2023/03/28 03:02:48;;;;;;;8.83;2.33;;;0.10;99.90;;;;;;4953652;28;37720;-74
2023/03/28 03:05:14;;;;;;;4.07;1.37;;;0.20;99.90;;;;;;4948386;28;37523;-75
2023/03/28 03:07:41;;;;;;;5.90;1.40;;;0.20;99.90;;;;;;4927923;28;37198;-74
2023/03/28 03:10:10;;;;;;;7.77;1.80;;;0.20;99.90;;;;;;4940294;28;36889;-75
2023/03/28 03:12:37;;;;;;;6.07;2.43;;;0.10;99.90;;;;;;4930767;28;39792;-74
2023/03/28 03:15:04;;;;;;;6.60;2.60;;;0.20;99.90;;;;;;4944711;28;38715;-74
2023/03/28 03:17:30;;;;;;;6.60;2.10;;;0.10;99.90;;;;;;4921822;28;47119;-74
2023/03/28 03:19:56;;;;;;;9.73;1.93;;;0.10;99.90;;;;;;4929800;28;35920;-74
2023/03/28 03:22:22;;;;;;;10.00;1.90;;;0.20;99.90;;;;;;4934711;28;38985;-74
2023/03/28 03:24:52;;;;;;;7.50;2.00;;;0.20;99.90;;;;;;4941369;28;40098;-74
2023/03/28 03:27:19;;;;;;;8.37;1.73;;;0.20;99.90;;;;;;4937101;28;40034;-75
2023/03/28 03:29:47;;;;;;;8.53;1.77;;;0.20;99.90;;;;;;4935276;28;37931;-76
2023/03/28 03:32:14;;;;;;;5.63;1.60;;;0.30;99.90;;;;;;4956768;28;37661;-75
2023/03/28 03:34:40;;;;;;;3.50;1.47;;;0.30;99.90;;;;;;4940337;28;40142;-75
2023/03/28 03:37:10;;;;;;;8.00;2.27;;;0.40;99.90;;;;;;4946118;28;38070;-75
2023/03/28 03:39:36;;;;;;;10.40;1.50;;;0.40;99.90;;;;;;4945911;28;36449;-74
2023/03/28 03:42:02;;;;;;;6.93;2.13;;;0.40;99.90;;;;;;4950327;28;37923;-75
2023/03/28 03:44:29;;;;;;;6.33;2.03;;;0.40;99.90;;;;;;4944646;28;38363;-74
2023/03/28 03:46:56;;;;;;;14.13;2.90;;;0.40;99.90;;;;;;4947150;28;37884;-74
2023/03/28 03:49:22;;;;;;;9.80;2.27;;;0.40;99.90;;;;;;4961437;28;37406;-73
2023/03/28 03:51:49;;;;;;;17.20;2.30;;;0.50;99.90;;;;;;4944309;28;37415;-74
2023/03/28 03:54:15;;;;;;;9.90;2.17;;;0.60;99.90;;;;;;4944170;28;38460;-75
2023/03/28 03:56:41;;;;;;;10.00;2.00;;;0.60;99.90;;;;;;4959986;28;38499;-74
2023/03/28 03:59:08;;;;;;;14.80;3.07;;;0.60;99.90;;;;;;4936609;28;39139;-74
2023/03/28 04:01:34;;;;;;;8.10;2.20;;;0.70;99.90;;;;;;4937228;28;38777;-74
2023/03/28 04:04:00;;;;;;;11.17;2.40;;;0.70;99.90;;;;;;4937147;28;38868;-74
2023/03/28 04:06:28;;;;;;;9.63;2.90;;;0.70;99.90;;;;;;4927227;28;37170;-74
2023/03/28 04:08:54;;;;;;;10.57;2.20;;;0.80;99.90;;;;;;4928108;28;37435;-75
2023/03/28 04:11:20;;;;;;;8.33;2.80;;;0.80;99.90;;;;;;4928954;28;38614;-74
2023/03/28 04:13:46;;;;;;;5.03;2.10;;;0.80;99.90;;;;;;4924147;28;38265;-75
2023/03/28 04:16:14;;;;;;;5.07;2.07;;;0.90;99.90;;;;;;4942509;28;37914;-74
2023/03/28 04:18:40;;;;;;;8.73;2.13;;;0.80;99.90;;;;;;4940978;28;36899;-74
2023/03/28 04:21:08;;;;;;;13.63;2.53;;;0.80;99.90;;;;;;4925936;28;39022;-75
2023/03/28 04:23:42;;;;;;;9.10;2.33;;;0.80;99.90;;;;;;4941465;28;38033;-75
2023/03/28 04:26:08;;;;;;;6.90;2.10;;;0.90;99.90;;;;;;4925371;28;37789;-75
2023/03/28 04:28:35;;;;;;;7.57;2.20;;;0.80;99.90;;;;;;4928020;28;37253;-75
2023/03/28 04:31:01;;;;;;;8.73;2.50;;;0.70;99.90;;;;;;4933800;28;38764;-74
2023/03/28 04:33:29;;;;;;;11.83;3.40;;;0.70;99.90;;;;;;4929535;28;47270;-74
2023/03/28 04:36:00;;;;;;;9.77;3.30;;;0.80;99.90;;;;;;4935655;28;37199;-75
2023/03/28 04:38:28;;;;;;;7.63;2.20;;;0.80;99.90;;;;;;4927242;28;37485;-74
2023/03/28 04:40:56;;;;;;;10.13;2.87;;;0.70;99.90;;;;;;4937139;28;38816;-74
2023/03/28 04:43:25;;;;;;;15.47;3.97;;;0.70;99.90;;;;;;4942458;28;39266;-75
2023/03/28 04:45:52;;;;;;;9.90;3.03;;;0.70;99.90;;;;;;4944599;28;38343;-74
2023/03/28 04:48:19;;;;;;;15.27;3.00;;;0.60;99.90;;;;;;4950922;28;36124;-74
2023/03/28 04:50:45;;;;;;;9.70;3.50;;;0.70;99.90;;;;;;4938168;28;40875;-75
2023/03/28 04:53:12;;;;;;;16.13;4.40;;;0.70;99.90;;;;;;4958685;28;37027;-74
2023/03/28 04:55:38;;;;;;;7.67;3.27;;;0.70;99.90;;;;;;4929702;28;39583;-74
2023/03/28 04:58:05;;;;;;;11.40;3.93;;;0.60;99.90;;;;;;4932810;28;36982;-75
2023/03/28 05:00:31;;;;;;;9.67;4.60;;;0.70;99.90;;;;;;4941919;28;37507;-75
2023/03/28 05:03:03;;;;;;;12.47;4.83;;;0.80;99.90;;;;;;4958028;28;37996;-74
2023/03/28 05:05:30;;;;;;;13.40;4.60;;;0.80;99.90;;;;;;4934003;28;47190;-74
2023/03/28 05:07:57;;;;;;;13.57;5.27;;;0.90;99.90;;;;;;4949080;28;36986;-74
2023/03/28 05:10:24;;;;;;;13.63;5.83;;;1.00;99.90;;;;;;4948287;28;37714;-74
2023/03/28 05:12:50;;;;;;;13.50;5.70;;;1.10;99.90;;;;;;4946373;28;38986;-73
2023/03/28 05:15:16;;;;;;;15.37;6.33;;;1.10;99.90;;;;;;4933256;28;36865;-74
2023/03/28 05:17:42;;;;;;;9.80;5.70;;;1.10;99.90;;;;;;4947287;28;38482;-73
2023/03/28 05:20:09;;;;;;;17.80;6.00;;;1.00;99.90;;;;;;4937657;28;37097;-73
2023/03/28 05:22:36;;;;;;;14.73;6.27;;;0.90;99.90;;;;;;4949029;28;40083;-73
2023/03/28 05:25:07;;;;;;;10.53;6.20;;;0.90;99.90;;;;;;4963247;28;38320;-73
2023/03/28 05:27:33;;;;;;;11.57;5.90;;;0.90;99.90;;;;;;4917908;28;47155;-73
2023/03/28 05:30:00;;;;;;;23.17;7.43;;;0.90;99.90;;;;;;4938615;28;37848;-74
2023/03/28 05:32:26;;;;;;;12.17;6.53;;;0.90;99.90;;;;;;4940471;28;37584;-74
2023/03/28 05:34:52;;;;;;;13.07;6.73;;;1.00;99.90;;;;;;4948979;28;37892;-74
2023/03/28 05:37:18;;;;;;;16.97;7.20;;;0.90;99.90;;;;;;4944765;28;37992;-75
2023/03/28 05:39:45;;;;;;;20.00;6.90;;;1.00;99.90;;;;;;4947514;28;38505;-74
2023/03/28 05:42:11;;;;;;;19.40;7.93;;;1.10;99.90;;;;;;4953173;28;38747;-74
2023/03/28 05:44:37;;;;;;;14.10;7.50;;;1.10;99.90;;;;;;4957535;28;36734;-75
2023/03/28 05:47:03;;;;;;;20.70;10.37;;;1.00;99.90;;;;;;4957417;28;35564;-74
2023/03/28 05:49:29;;;;;;;17.37;8.93;;;1.00;99.90;;;;;;4945598;28;40321;-74
2023/03/28 05:51:55;;;;;;;17.37;9.47;;;1.00;99.90;;;;;;4953917;28;38071;-74
2023/03/28 05:54:21;;;;;;;24.90;9.60;;;1.00;99.90;;;;;;4950732;28;36691;-74
2023/03/28 05:56:47;;;;;;;23.73;10.43;;;1.10;99.90;;;;;;4936424;28;37026;-75
2023/03/28 05:59:13;;;;;;;22.03;9.97;;;1.30;99.90;;;;;;4949357;28;37640;-75
2023/03/28 06:01:41;;;;;;;14.47;8.50;;;1.40;99.90;;;;;;4931110;28;38332;-73
2023/03/28 06:04:08;;;;;;;22.83;9.80;;;1.50;99.90;;;;;;4944529;28;37201;-73
2023/03/28 06:06:34;;;;;;;22.80;8.63;;;1.70;99.90;;;;;;4922435;28;37151;-72
2023/03/28 06:09:01;;;;;;;22.83;7.63;;;1.80;99.90;;;;;;4930156;28;40250;-73
2023/03/28 06:11:27;;;;;;;16.87;7.67;;;1.80;99.90;;;;;;4945829;28;47333;-73
2023/03/28 06:13:53;;;;;;;27.63;8.07;;;1.90;99.90;;;;;;4937147;28;37097;-72
2023/03/28 06:16:19;;;;;;;13.23;5.83;;;2.00;99.90;;;;;;4934365;28;37242;-72
2023/03/28 06:18:45;;;;;;;20.33;7.53;;;2.10;99.90;;;;;;4939475;28;37694;-72
2023/03/28 06:21:11;;;;;;;18.33;6.87;;;2.20;99.90;;;;;;4952830;28;38503;-72
2023/03/28 06:23:38;;;;;;;20.50;6.97;;;2.30;99.90;;;;;;4940153;28;37916;-73
2023/03/28 06:26:05;;;;;;;19.03;7.23;;;2.50;99.90;;;;;;4935956;28;37291;-73
2023/03/28 06:28:31;;;;;;;18.10;8.30;;;2.50;99.90;;;;;;4936527;28;38835;-73
2023/03/28 06:30:57;;;;;;;18.23;7.60;;;2.60;99.90;;;;;;4945900;28;39164;-74
2023/03/28 06:33:24;;;;;;;21.57;8.10;;;2.70;99.90;;;;;;4930786;28;38507;-74
2023/03/28 06:35:50;;;;;;;20.37;8.77;;;2.80;99.90;;;;;;4935927;28;37818;-74
2023/03/28 06:38:16;;;;;;;16.13;6.77;;;2.90;99.90;;;;;;4941495;28;38657;-74
2023/03/28 06:40:42;;;;;;;15.37;7.67;;;3.00;99.90;;;;;;4944574;28;38489;-75
2023/03/28 06:43:08;;;;;;;15.80;6.77;;;3.10;99.90;;;;;;4939500;28;36922;-76
2023/03/28 06:45:34;;;;;;;17.57;6.20;;;3.30;99.90;;;;;;4929110;28;36260;-75
2023/03/28 06:48:01;;;;;;;19.40;6.97;;;3.40;99.90;;;;;;4940056;28;38619;-75
2023/03/28 06:50:27;;;;;;;11.77;5.73;;;3.50;99.90;;;;;;4948317;28;47755;-75
2023/03/28 06:52:53;;;;;;;14.40;6.17;;;3.50;99.90;;;;;;4938936;28;36866;-73
2023/03/28 06:55:21;;;;;;;16.00;5.83;;;3.60;99.90;;;;;;4946072;28;37236;-72
2023/03/28 06:57:47;;;;;;;13.80;5.97;;;3.70;99.90;;;;;;4958516;28;38595;-74
2023/03/28 07:00:14;;;;;;;9.60;5.17;;;3.70;99.90;;;;;;4947470;28;39000;-73
2023/03/28 07:02:40;;;;;;;13.80;5.70;;;3.70;99.90;;;;;;4956167;28;38347;-75
2023/03/28 07:05:08;;;;;;;17.90;5.83;;;3.80;99.90;;;;;;4950122;28;20047;-74
2023/03/28 07:07:34;;;;;;;19.83;6.50;;;3.80;99.90;;;;;;4949494;28;37750;-73
2023/03/28 07:10:00;;;;;;;11.57;6.17;;;3.90;99.90;;;;;;4946859;28;37254;-74
2023/03/28 07:12:27;;;;;;;11.93;5.83;;;4.00;99.90;;;;;;4967411;28;39199;-74
2023/03/28 07:14:53;;;;;;;16.10;6.57;;;4.10;99.90;;;;;;4946386;28;37665;-76
2023/03/28 07:17:19;;;;;;;16.67;5.60;;;4.20;99.90;;;;;;4955874;28;38840;-74
2023/03/28 07:19:47;;;;;;;15.67;6.43;;;4.30;99.90;;;;;;4951763;28;37451;-74
2023/03/28 07:22:14;;;;;;;13.80;6.80;;;4.40;99.90;;;;;;4947490;28;37084;-74
2023/03/28 07:24:40;;;;;;;16.90;6.77;;;4.60;99.90;;;;;;4967563;28;37067;-74
2023/03/28 07:27:08;;;;;;;11.80;6.37;;;4.70;99.90;;;;;;4966778;28;38818;-74
2023/03/28 07:29:34;;;;;;;12.27;5.87;;;4.80;99.90;;;;;;4954806;28;38589;-73
2023/03/28 07:32:00;;;;;;;13.83;5.53;;;5.00;99.90;;;;;;4949512;28;36835;-74
2023/03/28 07:34:26;;;;;;;10.47;5.50;;;5.10;99.90;;;;;;4949755;28;47994;-73
2023/03/28 07:36:52;;;;;;;12.27;5.90;;;5.20;99.90;;;;;;4968765;28;39724;-73
2023/03/28 07:39:19;;;;;;;13.80;6.67;;;5.20;99.90;;;;;;4950859;28;37356;-73
2023/03/28 07:41:45;;;;;;;20.30;6.03;;;5.30;99.90;;;;;;4946005;28;38451;-72
2023/03/28 07:44:11;;;;;;;11.33;5.17;;;5.30;99.90;;;;;;4949588;28;36254;-73
2023/03/28 07:46:37;;;;;;;14.00;5.30;;;5.30;99.90;;;;;;4965602;28;37565;-73
2023/03/28 07:49:03;;;;;;;15.70;5.27;;;5.30;99.90;;;;;;4965660;28;37534;-72
2023/03/28 07:51:29;;;;;;;13.03;4.90;;;5.30;99.90;;;;;;4962356;28;39095;-72
2023/03/28 07:53:55;;;;;;;16.30;5.63;;;5.30;99.90;;;;;;4945170;28;37572;-73
2023/03/28 07:56:22;;;;;;;18.57;7.07;;;5.30;99.90;;;;;;4947230;28;39647;-73
2023/03/28 07:58:48;;;;;;;19.53;7.13;;;5.30;99.90;;;;;;4948167;28;37877;-73
2023/03/28 08:01:17;;;;;;;23.90;7.10;;;5.50;99.90;;;;;;4961429;28;36825;-72
2023/03/28 08:03:43;;;;;;;18.17;7.20;;;5.50;99.90;;;;;;4965924;28;37368;-72
2023/03/28 08:06:10;;;;;;;17.47;7.47;;;5.50;99.90;;;;;;4964013;28;39891;-72
2023/03/28 08:08:36;;;;;;;15.40;7.07;;;5.50;99.90;;;;;;4945536;28;37939;-72
2023/03/28 08:11:02;;;;;;;19.53;7.03;;;5.60;99.90;;;;;;4962627;28;37088;-73
2023/03/28 08:13:28;;;;;;;19.20;7.13;;;5.60;99.90;;;;;;4949139;28;37121;-74
2023/03/28 08:15:55;;;;;;;14.77;6.50;;;5.60;99.90;;;;;;4964661;28;39463;-75
2023/03/28 08:18:24;;;;;;;22.17;6.70;;;5.60;99.90;;;;;;4945953;28;37486;-74
2023/03/28 08:20:58;;;;;;;13.57;6.17;;;5.70;99.90;;;;;;4939111;28;37859;-74
2023/03/28 08:23:25;;;;;;;17.07;5.43;;;5.80;99.90;;;;;;4934612;28;36634;-73
2023/03/28 08:25:52;;;;;;;11.93;4.37;;;5.90;99.90;;;;;;4962354;28;39467;-71
2023/03/28 08:28:19;;;;;;;13.57;4.13;;;5.80;99.90;;;;;;4943743;28;37710;-71
2023/03/28 08:30:45;;;;;;;10.60;4.00;;;5.80;99.90;;;;;;4939159;28;37510;-70
2023/03/28 08:33:11;;;;;;;16.27;4.50;;;5.90;99.90;;;;;;4972581;28;37297;-72
2023/03/28 08:35:37;;;;;;;8.07;3.90;;;5.90;99.90;;;;;;4951217;28;37613;-73
2023/03/28 08:38:03;;;;;;;11.57;4.83;;;6.00;99.90;;;;;;4963661;28;37141;-73
2023/03/28 08:40:29;;;;;;;15.17;3.77;;;6.00;99.90;;;;;;4968376;28;37325;-73
2023/03/28 08:43:30;;;;;;;8.00;3.37;;;6.10;99.90;;;;;;4972270;28;36421;-72
2023/03/28 08:45:58;;;;;;;7.77;3.40;;;6.00;99.90;;;;;;4958163;28;48522;-73
2023/03/28 08:48:39;;;;;;;10.83;3.20;;;6.10;99.90;;;;;;4951783;28;37737;-74
2023/03/28 08:51:34;;;;;;;8.17;3.20;;;6.10;99.90;;;;;;4965154;28;38185;-73
2023/03/28 08:54:12;;;;;;;6.30;2.13;;;6.20;99.90;;;;;;4949692;28;37256;-73
2023/03/28 08:56:51;;;;;;;5.27;2.33;;;6.20;99.90;;;;;;4966416;28;46987;-72
2023/03/28 08:59:53;;;;;;;9.30;2.93;;;6.20;99.90;;;;;;4968239;28;38578;-72
2023/03/28 09:02:25;;;;;;;5.93;2.40;;;6.30;99.90;;;;;;4963749;28;38928;-73
2023/03/28 09:04:52;;;;;;;10.73;2.80;;;6.40;99.90;;;;;;4949645;28;37406;-73
2023/03/28 09:07:43;;;;;;;8.67;2.60;;;6.40;99.90;;;;;;4950107;28;38360;-74
2023/03/28 09:10:18;;;;;;;12.30;2.77;;;6.60;99.90;;;;;;4948308;28;38250;-73
2023/03/28 09:13:12;;;;;;;10.00;2.93;;;6.60;99.90;;;;;;4962877;28;39082;-71
2023/03/28 09:15:55;;;;;;;3.83;1.90;;;6.40;99.90;;;;;;4945384;28;47500;-73
2023/03/28 09:18:41;;;;;;;9.23;2.60;;;6.40;99.90;;;;;;4966516;28;38454;-73
2023/03/28 09:21:20;;;;;;;13.73;2.93;;;6.40;99.90;;;;;;4945927;28;38127;-72
2023/03/28 09:24:04;;;;;;;5.23;2.40;;;6.70;99.90;;;;;;4951450;28;38335;-73
2023/03/28 09:27:01;;;;;;;7.80;2.60;;;6.60;99.90;;;;;;4947883;28;48784;-73
2023/03/28 09:29:31;;;;;;;10.20;2.97;;;6.70;99.90;;;;;;4961693;28;38600;-72
2023/03/28 09:32:11;;;;;;;9.00;3.00;;;6.80;99.90;;;;;;4966791;28;38499;-73
2023/03/28 09:34:39;;;;;;;12.27;3.37;;;6.80;99.90;;;;;;4941951;28;47274;-72
2023/03/28 09:37:20;;;;;;;14.43;2.97;;;7.00;99.90;;;;;;4969042;28;37998;-72
2023/03/28 09:39:52;;;;;;;4.30;2.00;;;7.10;99.90;;;;;;4949265;28;37752;-72
2023/03/28 09:42:35;;;;;;;12.33;2.50;;;7.20;99.90;;;;;;4963513;28;39070;-73
2023/03/28 09:45:06;;;;;;;;;;;6.90;99.90;;;;;;4944194;28;37806;-72
2023/03/28 09:47:32;;;;;;;6.53;2.57;;;6.90;99.90;;;;;;4966817;28;48851;-73
2023/03/28 09:49:59;;;;;;;10.47;2.87;;;6.90;99.90;;;;;;4946450;28;39408;-73
2023/03/28 09:52:25;;;;;;;7.30;2.00;;;7.00;99.90;;;;;;4943606;28;37516;-73
2023/03/28 09:54:51;;;;;;;9.87;2.33;;;7.10;99.90;;;;;;4948791;28;38810;-72
2023/03/28 09:57:17;;;;;;;8.20;2.47;;;7.10;99.90;;;;;;4955435;28;37431;-73
2023/03/28 09:59:43;;;;;;;10.67;2.17;;;7.20;99.90;;;;;;4969103;28;39954;-73
2023/03/28 10:02:31;;;;;;;6.67;2.17;;;7.30;99.90;;;;;;4963505;28;38577;-73
2023/03/28 10:04:57;;;;;;;10.17;2.50;;;7.50;99.90;;;;;;4965940;28;37638;-73
2023/03/28 10:07:42;;;;;;;7.37;2.27;;;7.60;99.90;;;;;;4950186;28;36282;-73
2023/03/28 10:10:18;;;;;;;9.43;2.10;;;7.50;99.90;;;;;;4944376;28;39879;-74
2023/03/28 10:12:47;;;;;;;8.97;2.40;;;7.40;99.90;;;;;;4946835;28;37614;-73
2023/03/28 10:15:47;;;;;;;5.57;1.90;;;7.50;99.90;;;;;;4946741;28;37214;-73
2023/03/28 10:18:19;;;;;;;7.03;2.37;;;7.70;99.90;;;;;;4959309;28;37110;-72
2023/03/28 10:20:49;;;;;;;8.20;2.40;;;7.60;99.90;;;;;;4946517;28;39191;-72
2023/03/28 10:23:16;;;;;;;5.43;2.47;;;7.50;99.90;;;;;;4964857;28;37741;-72
2023/03/28 10:25:45;;;;;;;7.37;2.50;;;7.50;99.90;;;;;;4951294;28;36908;-72
2023/03/28 10:28:42;;;;;;;5.30;2.40;;;7.30;99.90;;;;;;4952557;28;36104;-73
2023/03/28 10:31:30;;;;;;;10.90;3.33;;;7.20;99.90;;;;;;4965247;28;40096;-73
2023/03/28 10:33:58;;;;;;;10.93;3.53;;;7.20;99.90;;;;;;4970228;28;38768;-73
2023/03/28 10:36:46;;;;;;;9.67;3.70;;;7.30;99.90;;;;;;4966344;28;39125;-73
2023/03/28 10:39:25;;;;;;;9.73;4.17;;;7.30;99.90;;;;;;4967799;28;36699;-75
2023/03/28 10:41:54;;;;;;;11.97;3.90;;;7.30;99.90;;;;;;4950383;28;38413;-72
2023/03/28 10:44:39;;;;;;;10.27;4.73;;;7.40;99.90;;;;;;4966209;28;37908;-72
2023/03/28 10:47:13;;;;;;;13.10;5.07;;;7.40;99.90;;;;;;4962121;28;37858;-72
2023/03/28 10:49:49;;;;;;;12.83;4.83;;;7.70;99.90;;;;;;4947979;28;36064;-72
2023/03/28 10:52:55;;;;;;;10.63;4.53;;;7.70;99.90;;;;;;4965479;28;39027;-72
2023/03/28 10:55:27;;;;;;;12.27;4.83;;;7.50;99.90;;;;;;4953877;28;39121;-72
2023/03/28 10:58:04;;;;;;;12.80;4.93;;;7.90;99.90;;;;;;4969112;28;38165;-71
2023/03/28 11:00:41;;;;;;;12.97;5.33;;;7.70;99.90;;;;;;4972766;28;47529;-73
2023/03/28 11:03:28;;;;;;;15.40;5.37;;;7.70;99.90;;;;;;4950814;28;37591;-71
2023/03/28 11:06:01;;;;;;;16.33;5.50;;;7.80;99.90;;;;;;4965950;28;37197;-72
2023/03/28 11:08:30;;;;;;;;;;;7.60;99.90;;;;;;4968843;28;48528;-72
2023/03/28 11:11:14;;;;;;;25.17;5.00;;;7.80;99.90;;;;;;4953707;28;36064;-72
2023/03/28 11:13:46;;;;;;;15.80;5.57;;;7.90;99.90;;;;;;4959405;28;48665;-72
2023/03/28 11:16:12;;;;;;;16.42;4.85;;;8.00;99.90;;;;;;4968103;28;38641;-73
2023/03/28 11:18:56;;;;;;;11.57;4.00;;;7.90;99.90;;;;;;4970344;28;38143;-73
2023/03/28 11:21:41;;;;;;;13.60;3.97;;;7.90;99.90;;;;;;4967477;28;38236;-72
2023/03/28 11:24:38;;;;;;;12.33;4.00;;;7.90;99.90;;;;;;4949907;28;39512;-72
2023/03/28 11:27:44;;;;;;;13.50;3.20;;;8.20;99.90;;;;;;4959592;28;37405;-71
2023/03/28 11:30:19;;;;;;;7.90;2.63;;;8.50;99.90;;;;;;4960805;28;38220;-71
2023/03/28 11:32:56;;;;;;;8.40;2.77;;;8.60;99.90;;;;;;4943046;28;36404;-70
2023/03/28 11:35:36;;;;;;;12.53;2.73;;;8.90;99.90;;;;;;4949459;28;37837;-73
2023/03/28 11:38:11;;;;;;;7.33;2.87;;;9.10;99.90;;;;;;4949654;28;38342;-73
2023/03/28 11:40:56;;;;;;;8.27;2.20;;;8.80;99.90;;;;;;4961455;28;38252;-73
2023/03/28 11:43:43;;;;;;;8.53;2.13;;;8.80;99.90;;;;;;4950053;28;37518;-72
2023/03/28 11:46:21;;;;;;;8.03;2.40;;;9.00;99.90;;;;;;4942862;28;36212;-72
2023/03/28 11:49:12;;;;;;;8.63;2.03;;;9.00;99.90;;;;;;4961662;28;37096;-71
2023/03/28 11:51:58;;;;;;;7.00;2.13;;;9.30;99.90;;;;;;4961974;28;47225;-72
2023/03/28 11:55:02;;;;;;;4.85;1.92;;;9.20;99.90;;;;;;4948654;28;36798;-71
2023/03/28 11:57:38;;;;;;;8.80;2.38;;;9.50;99.90;;;;;;4966226;28;37812;-72
2023/03/28 12:00:13;;;;;;;7.90;2.57;;;9.40;99.90;;;;;;4967743;28;38028;-71
2023/03/28 12:02:44;;;;;;;8.77;2.03;;;9.20;99.90;;;;;;4945109;28;37167;-72
2023/03/28 12:05:47;;;;;;;7.03;2.27;;;9.00;99.90;;;;;;4944657;28;37560;-72
2023/03/28 12:08:42;;;;;;;10.57;2.03;;;9.00;99.90;;;;;;4959373;28;38466;-71
2023/03/28 12:11:18;;;;;;;3.90;1.63;;;9.20;99.90;;;;;;4944584;28;40317;-71
2023/03/28 12:13:49;;;;;;;5.90;2.20;;;9.10;99.90;;;;;;4967185;28;37877;-71
2023/03/28 12:16:20;;;;;;;3.65;1.83;;;9.30;99.90;;;;;;4963173;28;37478;-72
2023/03/28 12:19:00;;;;;;;6.18;2.40;;;9.60;99.90;;;;;;4959487;28;38132;-72
2023/03/28 12:21:34;;;;;;;14.25;2.92;;;9.50;99.90;;;;;;4962385;28;37917;-72
2023/03/28 12:24:33;;;;;;;8.55;2.50;;;9.30;99.90;;;;;;4946278;28;37128;-72
2023/03/28 12:27:06;;;;;;;7.63;2.50;;;9.10;99.90;;;;;;4966050;28;49074;-72
2023/03/28 12:29:58;;;;;;;9.40;2.50;;;8.90;99.90;;;;;;4966483;28;48604;-72
2023/03/28 12:32:57;;;;;;;8.70;2.80;;;8.70;99.90;;;;;;4966465;28;38424;-73
2023/03/28 12:35:56;;;;;;;6.05;2.70;;;9.00;99.90;;;;;;4967227;28;36715;-72
2023/03/28 12:38:39;;;;;;;6.33;2.97;;;9.10;99.90;;;;;;4944851;28;35836;-72
2023/03/28 12:41:08;;;;;;;11.57;3.17;;;9.00;99.90;;;;;;4967950;28;38409;-73
2023/03/28 12:43:50;;;;;;;8.52;2.22;;;9.20;99.90;;;;;;4954334;28;38224;-72
2023/03/28 12:46:21;;;;;;;8.02;2.72;;;9.40;99.90;;;;;;4967598;28;37961;-72
2023/03/28 12:48:59;;;;;;;7.60;2.05;;;9.40;99.90;;;;;;4946398;28;36415;-71
2023/03/28 12:51:37;;;;;;;8.18;2.78;;;9.60;99.90;;;;;;4961787;28;38279;-69
2023/03/28 12:54:29;;;;;;;5.82;2.20;;;9.90;99.90;;;;;;4964814;28;38451;-70
2023/03/28 12:57:07;;;;;;;10.43;2.55;;;9.60;99.90;;;;;;4949003;28;36855;-71
2023/03/28 12:59:38;;;;;;;5.95;2.10;;;9.80;99.90;;;;;;4946044;28;48635;-71
2023/03/28 13:02:23;;;;;;;7.47;2.23;;;9.60;99.90;;;;;;4964849;28;39944;-71
2023/03/28 13:05:21;;;;;;;9.32;2.70;;;9.50;99.90;;;;;;4965332;28;41262;-71
2023/03/28 13:08:03;;;;;;;6.47;2.15;;;9.60;99.90;;;;;;4943511;28;47729;-71
2023/03/28 13:10:37;;;;;;;7.57;2.20;;;9.80;99.90;;;;;;4964033;28;47695;-72
2023/03/28 13:13:21;;;;;;;9.90;2.38;;;9.90;99.90;;;;;;4965162;28;38796;-72
2023/03/28 13:16:15;;;;;;;7.78;2.22;;;10.10;99.90;;;;;;4960805;28;38942;-71
2023/03/28 13:18:45;;;;;;;;;;;9.90;99.90;;;;;;4940150;28;47235;-71
2023/03/28 13:21:11;;;;;;;7.40;2.50;;;9.80;99.90;;;;;;4949683;28;38115;-69
2023/03/28 13:23:46;;;;;;;11.80;2.60;;;9.70;99.90;;;;;;4965547;28;38863;-70